createdAt,value
2023-02-27T00:02:10.764Z,62.83
2023-02-27T00:04:59.153Z,58.83
2023-02-27T00:07:49.165Z,45.22
2023-02-27T00:10:31.465Z,47.50
2023-02-27T00:13:20.204Z,46.42
2023-02-27T00:16:02.526Z,55.40
2023-02-27T00:18:51.214Z,46.38
2023-02-27T00:21:35.290Z,45.10
2023-02-27T00:24:25.212Z,33.50
2023-02-27T00:27:14.269Z,41.53
2023-02-27T00:30:02.520Z,50.60
2023-02-27T00:32:45.258Z,34.75
2023-02-27T00:35:34.647Z,39.50
2023-02-27T00:38:18.269Z,36.33
2023-02-27T00:41:07.675Z,43.47
2023-02-27T00:43:50.258Z,43.00
2023-02-27T00:46:38.506Z,54.53
2023-02-27T00:49:27.154Z,84.25
2023-02-27T00:52:10.801Z,106.97
2023-02-27T00:57:41.741Z,125.63
2023-02-27T01:00:30.268Z,138.52
2023-02-27T01:03:12.547Z,92.93
2023-02-27T01:06:02.430Z,82.05
2023-02-27T01:08:44.479Z,71.90
2023-02-27T01:11:33.208Z,70.88
2023-02-27T01:14:16.085Z,66.55
2023-02-27T01:17:06.168Z,54.30
2023-02-27T01:19:48.583Z,46.05
2023-02-27T01:22:40.171Z,37.78
2023-02-27T01:25:24.644Z,30.75
2023-02-27T01:28:14.232Z,44.15
2023-02-27T01:30:56.581Z,27.15
2023-02-27T01:33:47.204Z,38.80
2023-02-27T01:36:29.623Z,33.53
2023-02-27T01:39:19.238Z,34.38
2023-02-27T01:42:01.971Z,33.78
2023-02-27T01:45:28.324Z,37.03
2023-02-27T01:48:37.982Z,32.95
2023-02-27T01:51:42.227Z,33.10
2023-02-27T01:54:30.443Z,38.55
2023-02-27T01:57:19.195Z,31.23
2023-02-27T02:00:08.286Z,40.88
2023-02-27T02:03:51.510Z,33.78
2023-02-27T02:06:34.192Z,36.60
2023-02-27T02:09:19.844Z,36.15
2023-02-27T02:12:10.144Z,33.15
2023-02-27T02:14:53.253Z,40.00
2023-02-27T02:18:13.570Z,62.92
2023-02-27T02:21:18.498Z,37.47
2023-02-27T02:24:15.147Z,39.92
2023-02-27T02:27:24.971Z,42.25
2023-02-27T02:30:57.242Z,48.25
2023-02-27T02:33:39.519Z,43.08
2023-02-27T02:37:01.296Z,40.20
2023-02-27T02:39:52.428Z,40.38
2023-02-27T02:42:58.185Z,32.40
2023-02-27T02:45:46.627Z,33.92
2023-02-27T02:48:43.237Z,28.73
2023-02-27T02:51:35.482Z,32.00
2023-02-27T02:54:37.151Z,32.67
2023-02-27T02:57:30.781Z,32.13
2023-02-27T03:00:37.212Z,25.43
2023-02-27T03:04:07.169Z,33.67
2023-02-27T03:06:55.527Z,32.63
2023-02-27T03:10:02.254Z,27.58
2023-02-27T03:12:50.518Z,29.63
2023-02-27T03:15:50.220Z,33.88
2023-02-27T03:18:37.414Z,24.58
2023-02-27T03:21:52.186Z,25.55
2023-02-27T03:25:08.630Z,32.33
2023-02-27T03:28:05.070Z,30.63
2023-02-27T03:31:16.526Z,33.53
2023-02-27T03:34:12.459Z,30.15
2023-02-27T03:37:03.234Z,36.20
2023-02-27T03:40:01.476Z,25.92
2023-02-27T03:42:54.220Z,23.60
2023-02-27T03:46:00.775Z,28.52
2023-02-27T03:48:52.167Z,25.75
2023-02-27T03:51:43.140Z,32.58
2023-02-27T03:54:38.472Z,24.50
2023-02-27T03:57:27.124Z,28.25
2023-02-27T04:00:17.173Z,31.17
2023-02-27T04:03:02.025Z,28.45
2023-02-27T04:05:51.182Z,39.92
2023-02-27T04:08:36.181Z,27.20
2023-02-27T04:11:54.188Z,28.83
2023-02-27T04:14:51.440Z,26.98
2023-02-27T04:17:44.232Z,41.25
2023-02-27T04:20:50.459Z,40.78
2023-02-27T04:23:48.172Z,38.35
2023-02-27T04:26:44.189Z,40.35
2023-02-27T04:29:45.185Z,39.60
2023-02-27T04:33:00.176Z,35.88
2023-02-27T04:36:01.433Z,60.30
2023-02-27T04:39:00.200Z,52.67
2023-02-27T04:41:56.468Z,55.28
2023-02-27T04:44:46.204Z,54.05
2023-02-27T04:47:31.386Z,65.15
2023-02-27T04:50:45.142Z,40.00
2023-02-27T04:53:30.473Z,35.97
2023-02-27T04:56:27.177Z,35.90
2023-02-27T04:59:21.483Z,30.45
2023-02-27T05:02:15.351Z,20.50
2023-02-27T05:08:02.183Z,28.70
2023-02-27T05:11:06.269Z,22.00
2023-02-27T05:14:20.468Z,31.55
2023-02-27T05:17:07.240Z,21.35
2023-02-27T05:19:56.496Z,20.10
2023-02-27T05:22:38.217Z,19.27
2023-02-27T05:25:33.533Z,29.65
2023-02-27T05:28:25.170Z,20.83
2023-02-27T05:31:26.132Z,21.67
2023-02-27T05:34:18.191Z,24.63
2023-02-27T05:37:26.550Z,28.23
2023-02-27T05:40:16.175Z,29.13
2023-02-27T05:43:39.452Z,25.75
2023-02-27T05:46:33.325Z,27.30
2023-02-27T05:49:35.523Z,19.58
2023-02-27T05:52:23.217Z,24.10
2023-02-27T05:55:20.711Z,15.77
2023-02-27T05:58:16.210Z,21.52
2023-02-27T06:01:09.428Z,22.95
2023-02-27T06:03:52.316Z,25.02
2023-02-27T06:06:44.507Z,17.45
2023-02-27T06:09:27.135Z,19.92
2023-02-27T06:12:09.436Z,26.40
2023-02-27T06:14:59.222Z,18.17
2023-02-27T06:17:47.487Z,20.45
2023-02-27T06:20:30.140Z,18.27
2023-02-27T06:23:19.493Z,12.18
2023-02-27T06:26:02.282Z,15.02
2023-02-27T06:28:50.488Z,18.83
2023-02-27T06:31:33.457Z,11.93
2023-02-27T06:34:21.436Z,17.25
2023-02-27T06:37:04.336Z,20.20
2023-02-27T06:39:55.226Z,21.00
2023-02-27T06:42:37.217Z,23.67
2023-02-27T06:45:26.429Z,36.75
2023-02-27T06:48:09.503Z,26.80
2023-02-27T06:51:09.145Z,26.67
2023-02-27T06:53:57.388Z,23.10
2023-02-27T06:56:40.280Z,20.17
2023-02-27T06:59:22.285Z,24.27
2023-02-27T07:02:11.119Z,27.20
2023-02-27T07:04:54.378Z,25.50
2023-02-27T07:07:43.234Z,28.60
2023-02-27T07:10:33.970Z,19.40
2023-02-27T07:13:18.452Z,24.25
2023-02-27T07:16:08.215Z,29.48
2023-02-27T07:18:57.178Z,32.92
2023-02-27T07:21:39.509Z,30.65
2023-02-27T07:24:28.157Z,27.08
2023-02-27T07:27:16.398Z,24.98
2023-02-27T07:29:58.146Z,36.90
2023-02-27T07:32:47.151Z,32.05
2023-02-27T07:35:29.598Z,38.35
2023-02-27T07:38:18.150Z,30.25
2023-02-27T07:41:21.228Z,35.92
2023-02-27T07:44:19.475Z,30.83
2023-02-27T07:47:02.322Z,35.08
2023-02-27T07:49:57.082Z,28.60
2023-02-27T07:52:46.220Z,26.25
2023-02-27T07:55:28.477Z,24.38
2023-02-27T07:58:17.203Z,23.25
2023-02-27T08:01:02.480Z,14.73
2023-02-27T08:03:51.222Z,12.10
2023-02-27T08:06:33.478Z,14.77
2023-02-27T08:09:22.226Z,18.17
2023-02-27T08:12:05.734Z,17.10
2023-02-27T08:14:54.178Z,7.07
2023-02-27T08:17:36.452Z,11.27
2023-02-27T08:20:25.367Z,19.65
2023-02-27T08:23:08.009Z,14.00
2023-02-27T08:25:57.168Z,15.27
2023-02-27T08:28:39.455Z,11.80
2023-02-27T08:31:28.184Z,15.50
2023-02-27T08:34:11.077Z,14.38
2023-02-27T08:37:00.237Z,20.70
2023-02-27T08:39:42.472Z,13.52
2023-02-27T08:42:31.363Z,14.70
2023-02-27T08:45:13.492Z,8.98
2023-02-27T08:48:03.200Z,15.48
2023-02-27T08:51:00.106Z,11.90
2023-02-27T08:53:49.229Z,15.65
2023-02-27T08:56:31.654Z,11.70
2023-02-27T08:59:20.166Z,15.48
2023-02-27T09:02:02.426Z,15.48
2023-02-27T09:04:51.124Z,12.18
2023-02-27T09:07:35.503Z,15.07
2023-02-27T09:10:24.254Z,16.20
2023-02-27T09:13:06.528Z,18.95
2023-02-27T09:15:56.169Z,18.60
2023-02-27T09:18:38.633Z,20.08
2023-02-27T09:21:28.231Z,14.77
2023-02-27T09:24:19.911Z,13.02
2023-02-27T09:27:09.133Z,14.02
2023-02-27T09:29:56.518Z,16.95
2023-02-27T09:32:46.211Z,15.07
2023-02-27T09:35:29.594Z,15.10
2023-02-27T09:38:20.175Z,16.85
2023-02-27T09:41:04.479Z,16.30
2023-02-27T09:43:56.284Z,17.90
2023-02-27T09:46:39.456Z,15.13
2023-02-27T09:49:32.154Z,23.77
2023-02-27T09:52:14.583Z,13.85
2023-02-27T09:55:03.259Z,18.40
2023-02-27T09:57:57.443Z,11.38
2023-02-27T10:00:52.226Z,18.08
2023-02-27T10:04:26.262Z,15.65
2023-02-27T10:07:42.456Z,16.52
2023-02-27T10:10:40.499Z,14.85
2023-02-27T10:14:14.659Z,14.32
2023-02-27T10:16:59.243Z,21.58
2023-02-27T10:19:51.585Z,18.02
2023-02-27T10:22:41.230Z,16.13
2023-02-27T10:25:32.175Z,17.35
2023-02-27T10:28:22.245Z,17.20
2023-02-27T10:31:21.531Z,18.85
2023-02-27T10:34:05.201Z,18.60
2023-02-27T10:36:48.603Z,22.05
2023-02-27T10:39:39.176Z,17.88
2023-02-27T10:42:29.244Z,21.42
2023-02-27T10:45:15.912Z,23.38
2023-02-27T10:48:05.178Z,16.23
2023-02-27T10:51:02.048Z,20.52
2023-02-27T10:53:52.205Z,19.05
2023-02-27T10:56:35.616Z,18.17
2023-02-27T10:59:34.207Z,21.48
2023-02-27T11:02:25.451Z,20.90
2023-02-27T11:05:34.160Z,24.30
2023-02-27T11:08:38.235Z,22.63
2023-02-27T11:11:36.465Z,21.85
2023-02-27T11:14:36.228Z,22.77
2023-02-27T11:17:27.089Z,18.02
2023-02-27T11:20:19.578Z,21.70
2023-02-27T11:23:17.501Z,20.80
2023-02-27T11:26:23.178Z,14.68
2023-02-27T11:29:23.578Z,22.40
2023-02-27T11:32:13.293Z,16.60
2023-02-27T11:35:02.557Z,15.05
2023-02-27T11:37:47.200Z,15.80
2023-02-27T11:40:47.252Z,10.77
2023-02-27T11:43:34.600Z,13.75
2023-02-27T11:46:46.804Z,13.88
2023-02-27T11:50:06.183Z,12.32
2023-02-27T11:53:38.576Z,18.88
2023-02-27T11:56:31.223Z,13.90
2023-02-27T11:59:16.219Z,19.35
2023-02-27T12:02:29.264Z,15.25
2023-02-27T12:05:45.229Z,15.88
2023-02-27T12:09:00.177Z,8.23
2023-02-27T12:11:55.435Z,15.20
2023-02-27T12:14:50.226Z,12.40
2023-02-27T12:17:57.456Z,16.70
2023-02-27T12:21:09.221Z,18.73
2023-02-27T12:24:00.011Z,18.58
2023-02-27T12:26:54.133Z,15.57
2023-02-27T12:30:29.442Z,14.43
2023-02-27T12:33:45.241Z,21.48
2023-02-27T12:36:34.098Z,20.80
2023-02-27T12:39:26.703Z,20.23
2023-02-27T12:42:39.205Z,23.77
2023-02-27T12:45:49.715Z,22.63
2023-02-27T12:48:58.158Z,18.80
2023-02-27T12:51:57.438Z,24.48
2023-02-27T12:55:04.113Z,26.02
2023-02-27T12:58:04.699Z,25.13
2023-02-27T13:00:54.212Z,22.30
2023-02-27T13:03:57.715Z,23.67
2023-02-27T13:07:04.160Z,30.02
2023-02-27T13:09:55.524Z,35.58
2023-02-27T13:12:51.178Z,26.00
2023-02-27T13:16:09.470Z,29.35
2023-02-27T13:18:55.179Z,39.85
2023-02-27T13:21:51.640Z,30.67
2023-02-27T13:24:36.226Z,39.50
2023-02-27T13:27:52.512Z,38.30
2023-02-27T13:30:47.139Z,40.47
2023-02-27T13:33:46.520Z,31.23
2023-02-27T13:36:38.442Z,37.53
2023-02-27T13:39:49.999Z,48.63
2023-02-27T13:42:36.216Z,47.75
2023-02-27T13:45:53.632Z,53.78
2023-02-27T13:48:48.222Z,61.58
2023-02-27T13:51:59.043Z,51.75
2023-02-27T13:54:49.428Z,48.38
2023-02-27T13:57:40.574Z,42.85
2023-02-27T14:00:33.265Z,36.10
2023-02-27T14:03:31.050Z,55.30
2023-02-27T14:06:20.192Z,59.72
2023-02-27T14:09:15.254Z,75.60
2023-02-27T14:12:08.113Z,52.92
2023-02-27T14:14:55.440Z,65.35
2023-02-27T14:17:44.197Z,69.40
2023-02-27T14:20:35.189Z,45.00
2023-02-27T14:23:17.392Z,59.10
2023-02-27T14:26:32.207Z,47.08
2023-02-27T14:29:24.007Z,50.05
2023-02-27T14:32:20.261Z,50.72
2023-02-27T14:35:11.444Z,44.35
2023-02-27T14:37:54.500Z,45.58
2023-02-27T14:40:48.603Z,43.30
2023-02-27T14:43:41.145Z,56.83
2023-02-27T14:46:47.386Z,47.88
2023-02-27T14:49:36.154Z,51.55
2023-02-27T14:52:41.205Z,41.85
2023-02-27T14:55:32.521Z,49.08
2023-02-27T14:58:27.212Z,55.17
2023-02-27T15:01:18.141Z,54.80
2023-02-27T15:04:03.794Z,49.70
2023-02-27T15:06:57.210Z,52.67
2023-02-27T15:09:45.652Z,45.65
2023-02-27T15:12:36.203Z,48.50
2023-02-27T15:15:25.583Z,41.33
2023-02-27T15:18:22.138Z,48.63
2023-02-27T15:21:06.625Z,50.85
2023-02-27T15:24:13.191Z,53.17
2023-02-27T15:26:59.641Z,47.88
2023-02-27T15:30:01.282Z,50.13
2023-02-27T15:32:49.424Z,68.65
2023-02-27T15:35:45.148Z,70.47
2023-02-27T15:38:51.150Z,55.75
2023-02-27T15:41:47.499Z,64.22
2023-02-27T15:44:42.469Z,50.72
2023-02-27T15:47:31.141Z,50.78
2023-02-27T15:50:32.113Z,46.47
2023-02-27T15:53:25.146Z,60.08
2023-02-27T15:56:11.554Z,54.00
2023-02-27T15:59:05.155Z,52.55
2023-02-27T16:01:47.655Z,50.78
2023-02-27T16:04:36.175Z,45.15
2023-02-27T16:07:31.116Z,66.13
2023-02-27T16:10:31.435Z,41.75
2023-02-27T16:13:43.128Z,50.13
2023-02-27T16:16:51.230Z,56.35
2023-02-27T16:19:40.416Z,55.28
2023-02-27T16:22:25.141Z,54.75
2023-02-27T16:25:19.519Z,54.15
2023-02-27T16:28:02.140Z,47.63
2023-02-27T16:30:51.446Z,51.47
2023-02-27T16:33:39.346Z,52.42
2023-02-27T16:36:33.665Z,55.03
2023-02-27T16:39:21.248Z,58.95
2023-02-27T16:42:11.624Z,63.42
2023-02-27T16:44:54.108Z,46.97
2023-02-27T16:47:42.526Z,49.03
2023-02-27T16:50:47.110Z,51.60
2023-02-27T16:53:36.201Z,67.35
2023-02-27T16:56:37.268Z,56.67
2023-02-27T16:59:42.662Z,64.03
2023-02-27T17:02:30.456Z,62.30
2023-02-27T17:05:13.322Z,60.67
2023-02-27T17:08:02.559Z,58.78
2023-02-27T17:10:45.202Z,62.58
2023-02-27T17:13:35.836Z,65.85
2023-02-27T17:16:26.358Z,59.83
2023-02-27T17:19:15.509Z,61.50
2023-02-27T17:22:01.106Z,64.28
2023-02-27T17:24:53.054Z,58.70
2023-02-27T17:27:36.145Z,57.53
2023-02-27T17:30:25.464Z,69.73
2023-02-27T17:33:08.157Z,63.85
2023-02-27T17:35:58.517Z,57.27
2023-02-27T17:38:41.230Z,61.90
2023-02-27T17:41:30.645Z,67.35
2023-02-27T17:44:13.256Z,56.78
2023-02-27T17:47:02.650Z,58.25
2023-02-27T17:49:45.189Z,50.95
2023-02-27T17:52:34.524Z,54.92
2023-02-27T17:55:18.686Z,61.42
2023-02-27T17:58:07.630Z,62.88
2023-02-27T18:00:49.298Z,58.00
2023-02-27T18:03:38.681Z,62.33
2023-02-27T18:06:22.156Z,70.50
2023-02-27T18:09:11.823Z,70.55
2023-02-27T18:11:55.154Z,66.80
2023-02-27T18:14:44.658Z,68.30
2023-02-27T18:17:27.414Z,78.90
2023-02-27T18:20:16.731Z,66.65
2023-02-27T18:22:59.344Z,74.70
2023-02-27T18:25:48.656Z,68.93
2023-02-27T18:28:31.233Z,69.32
2023-02-27T18:31:28.940Z,84.80
2023-02-27T18:34:12.122Z,70.50
2023-02-27T18:37:01.647Z,79.93
2023-02-27T18:39:44.225Z,82.22
2023-02-27T18:42:33.593Z,70.40
2023-02-27T18:45:16.154Z,72.35
2023-02-27T18:48:05.503Z,68.72
2023-02-27T18:51:01.254Z,81.05
2023-02-27T18:53:54.637Z,69.60
2023-02-27T18:56:40.114Z,89.15
2023-02-27T18:59:29.533Z,91.18
2023-02-27T19:02:12.179Z,68.68
2023-02-27T19:05:01.591Z,74.55
2023-02-27T19:07:44.174Z,83.10
2023-02-27T19:10:36.042Z,83.38
2023-02-27T19:13:20.294Z,91.88
2023-02-27T19:16:11.466Z,84.85
2023-02-27T19:18:54.187Z,88.32
2023-02-27T19:21:43.769Z,86.50
2023-02-27T19:24:27.434Z,78.10
2023-02-27T19:27:18.189Z,93.43
2023-02-27T19:30:01.149Z,87.90
2023-02-27T19:32:43.564Z,94.63
2023-02-27T19:35:33.255Z,89.65
2023-02-27T19:38:22.344Z,87.88
2023-02-27T19:41:09.173Z,81.88
2023-02-27T19:43:59.772Z,86.47
2023-02-27T19:46:43.238Z,91.72
2023-02-27T19:49:31.521Z,93.35
2023-02-27T19:52:21.110Z,96.07
2023-02-27T19:55:03.450Z,92.40
2023-02-27T19:57:52.105Z,91.55
2023-02-27T20:00:34.454Z,105.75
2023-02-27T20:03:23.066Z,87.97
2023-02-27T20:06:10.149Z,91.45
2023-02-27T20:09:00.585Z,82.90
2023-02-27T20:11:42.425Z,97.55
2023-02-27T20:14:31.072Z,77.32
2023-02-27T20:17:13.524Z,97.47
2023-02-27T20:20:02.101Z,95.95
2023-02-27T20:22:45.344Z,89.03
2023-02-27T20:25:34.112Z,100.68
2023-02-27T20:28:16.483Z,94.10
2023-02-27T20:31:05.169Z,98.65
2023-02-27T20:33:48.570Z,97.20
2023-02-27T20:36:37.131Z,97.30
2023-02-27T20:39:20.584Z,95.13
2023-02-27T20:42:10.158Z,104.20
2023-02-27T20:44:52.612Z,99.05
2023-02-27T20:47:41.267Z,107.00
2023-02-27T20:50:23.597Z,95.38
2023-02-27T20:53:12.100Z,106.65
2023-02-27T20:55:55.490Z,130.32
2023-02-27T20:58:44.226Z,126.20
2023-02-27T21:01:27.724Z,125.40
2023-02-27T21:04:17.163Z,124.25
2023-02-27T21:07:00.446Z,119.65
2023-02-27T21:09:49.118Z,130.95
2023-02-27T21:12:31.630Z,121.55
2023-02-27T21:15:21.158Z,145.25
2023-02-27T21:18:03.454Z,132.20
2023-02-27T21:20:53.126Z,141.10
2023-02-27T21:23:35.616Z,137.65
2023-02-27T21:26:29.116Z,148.70
2023-02-27T21:29:18.431Z,143.00
2023-02-27T21:32:07.157Z,148.43
2023-02-27T21:34:49.527Z,149.65
2023-02-27T21:37:38.124Z,139.27
2023-02-27T21:40:21.427Z,149.02
2023-02-27T21:43:11.091Z,153.95
2023-02-27T21:45:53.385Z,166.10
2023-02-27T21:48:42.150Z,162.55
2023-02-27T21:51:39.931Z,163.13
2023-02-27T21:54:25.074Z,157.30
2023-02-27T21:57:07.762Z,165.70
2023-02-27T21:59:57.410Z,170.48
2023-02-27T22:02:44.387Z,161.93
2023-02-27T22:05:33.147Z,179.35
2023-02-27T22:08:22.036Z,187.13
2023-02-27T22:11:08.340Z,158.82
2023-02-27T22:13:57.081Z,226.93
2023-02-27T22:16:39.453Z,178.38
2023-02-27T22:19:29.121Z,177.50
2023-02-27T22:22:11.371Z,171.38
2023-02-27T22:25:00.087Z,163.63
2023-02-27T22:27:49.091Z,165.98
2023-02-27T22:30:38.464Z,174.65
2023-02-27T22:33:21.116Z,161.77
2023-02-27T22:36:16.381Z,156.73
2023-02-27T22:38:59.167Z,153.90
2023-02-27T22:41:43.283Z,131.65
2023-02-27T22:44:32.498Z,136.90
2023-02-27T22:47:22.455Z,120.35
2023-02-27T22:50:05.117Z,115.93
2023-02-27T22:52:53.395Z,111.60
2023-02-27T22:55:36.114Z,119.65
2023-02-27T22:58:24.390Z,113.30
2023-02-27T23:01:07.160Z,117.78
2023-02-27T23:03:58.450Z,103.97
2023-02-27T23:06:48.065Z,93.25
2023-02-27T23:09:31.021Z,97.55
2023-02-27T23:12:21.172Z,86.40
2023-02-27T23:15:10.438Z,71.18
2023-02-27T23:17:58.308Z,67.10
2023-02-27T23:20:48.327Z,64.03
2023-02-27T23:23:31.115Z,66.35
2023-02-27T23:26:14.317Z,61.38
2023-02-27T23:29:03.050Z,56.67
2023-02-27T23:31:52.248Z,58.53
2023-02-27T23:34:48.764Z,59.53
2023-02-27T23:37:38.061Z,56.88
2023-02-27T23:40:20.398Z,68.82
2023-02-27T23:43:27.066Z,58.95
2023-02-27T23:46:23.060Z,55.60
2023-02-27T23:49:05.843Z,57.63
2023-02-27T23:51:55.054Z,61.22
2023-02-27T23:54:44.230Z,57.42
2023-02-27T23:57:26.128Z,62.38
